createdAt,value
2018-03-22T00:00:08.238Z,-6.40
2018-03-22T00:01:08.102Z,-6.42
2018-03-22T00:02:07.967Z,-6.52
2018-03-22T00:03:07.827Z,-6.40
2018-03-22T00:04:07.694Z,-6.47
2018-03-22T00:05:07.553Z,-6.44
2018-03-22T00:06:07.416Z,-6.44
2018-03-22T00:07:07.281Z,-6.47
2018-03-22T00:08:07.148Z,-6.48
2018-03-22T00:09:07.008Z,-6.44
2018-03-22T00:10:06.870Z,-6.48
2018-03-22T00:11:06.735Z,-6.42
2018-03-22T00:12:06.597Z,-6.45
2018-03-22T00:13:06.460Z,-6.42
2018-03-22T00:14:06.324Z,-6.37
2018-03-22T00:15:06.188Z,-6.36
2018-03-22T00:16:06.051Z,-6.39
2018-03-22T00:17:05.914Z,-6.39
2018-03-22T00:18:05.778Z,-6.45
2018-03-22T00:19:05.641Z,-6.45
2018-03-22T00:20:05.505Z,-6.40
2018-03-22T00:21:05.370Z,-6.42
2018-03-22T00:22:05.230Z,-6.42
2018-03-22T00:23:05.095Z,-6.40
2018-03-22T00:24:04.960Z,-6.45
2018-03-22T00:25:04.826Z,-6.40
2018-03-22T00:26:04.683Z,-6.51
2018-03-22T00:27:04.548Z,-6.52
2018-03-22T00:28:04.412Z,-6.77
2018-03-22T00:29:04.275Z,-6.70
2018-03-22T00:30:04.140Z,-6.69
2018-03-22T00:31:04.004Z,-6.69
2018-03-22T00:32:03.863Z,-6.76
2018-03-22T00:33:03.732Z,-6.77
2018-03-22T00:34:03.590Z,-6.76
2018-03-22T00:35:03.459Z,-6.90
2018-03-22T00:36:03.316Z,-6.91
2018-03-22T00:37:03.181Z,-6.92
2018-03-22T00:38:03.045Z,-7.08
2018-03-22T00:39:02.906Z,-7.13
2018-03-22T00:40:02.774Z,-7.15
2018-03-22T00:41:02.633Z,-7.20
2018-03-22T00:42:02.500Z,-7.19
2018-03-22T00:43:02.360Z,-7.21
2018-03-22T00:44:02.220Z,-7.23
2018-03-22T00:45:02.086Z,-7.26
2018-03-22T00:46:01.947Z,-7.19
2018-03-22T00:47:01.811Z,-7.27
2018-03-22T00:48:01.674Z,-7.20
2018-03-22T00:49:01.540Z,-7.29
2018-03-22T00:50:01.399Z,-7.24
2018-03-22T00:51:01.263Z,-7.24
2018-03-22T00:52:01.124Z,-7.33
2018-03-22T00:53:00.993Z,-7.23
2018-03-22T00:54:00.852Z,-7.29
2018-03-22T00:55:00.712Z,-7.26
2018-03-22T00:56:00.578Z,-7.27
2018-03-22T00:57:00.449Z,-7.21
2018-03-22T00:58:00.306Z,-7.24
2018-03-22T00:59:00.164Z,-7.23
2018-03-22T01:00:00.027Z,-7.29
2018-03-22T01:00:59.888Z,-7.54
2018-03-22T01:01:59.754Z,-7.60
2018-03-22T01:02:59.615Z,-7.58
2018-03-22T01:03:59.478Z,-7.54
2018-03-22T01:04:59.338Z,-7.52
2018-03-22T01:05:59.202Z,-7.49
2018-03-22T01:06:59.064Z,-7.45
2018-03-22T01:07:58.932Z,-7.42
2018-03-22T01:08:58.792Z,-7.34
2018-03-22T01:09:58.651Z,-7.27
2018-03-22T01:10:58.516Z,-7.24
2018-03-22T01:11:58.378Z,-7.26
2018-03-22T01:12:58.241Z,-7.30
2018-03-22T01:13:58.103Z,-7.44
2018-03-22T01:14:57.969Z,-7.39
2018-03-22T01:15:57.827Z,-7.49
2018-03-22T01:16:57.697Z,-7.48
2018-03-22T01:17:57.571Z,-7.56
2018-03-22T01:18:57.418Z,-7.68
2018-03-22T01:19:57.277Z,-7.81
2018-03-22T01:20:57.141Z,-7.76
2018-03-22T01:21:57.004Z,-7.91
2018-03-22T01:22:56.865Z,-7.98
2018-03-22T01:23:56.732Z,-8.09
2018-03-22T01:24:56.589Z,-8.09
2018-03-22T01:25:56.455Z,-8.17
2018-03-22T01:26:56.317Z,-8.10
2018-03-22T01:27:56.177Z,-8.08
2018-03-22T01:28:56.038Z,-8.09
2018-03-22T01:29:55.900Z,-8.14
2018-03-22T01:30:55.767Z,-8.27
2018-03-22T01:31:55.624Z,-8.27
2018-03-22T01:32:55.484Z,-8.31
2018-03-22T01:33:55.350Z,-8.39
2018-03-22T01:34:55.214Z,-8.48
2018-03-22T01:35:55.076Z,-8.47
2018-03-22T01:36:54.932Z,-8.52
2018-03-22T01:37:54.796Z,-8.65
2018-03-22T01:38:54.657Z,-8.73
2018-03-22T01:39:54.525Z,-8.70
2018-03-22T01:40:54.379Z,-8.76
2018-03-22T01:41:54.242Z,-8.84
2018-03-22T01:42:54.102Z,-8.80
2018-03-22T01:43:53.965Z,-8.80
2018-03-22T01:44:53.824Z,-8.83
2018-03-22T01:45:53.685Z,-8.88
2018-03-22T01:46:53.545Z,-8.92
2018-03-22T01:47:53.407Z,-9.06
2018-03-22T01:48:53.271Z,-9.01
2018-03-22T01:49:53.129Z,-9.01
2018-03-22T01:50:52.996Z,-9.06
2018-03-22T01:51:52.854Z,-9.09
2018-03-22T01:52:52.714Z,-9.13
2018-03-22T01:53:52.574Z,-9.09
2018-03-22T01:54:52.433Z,-9.19
2018-03-22T01:55:52.297Z,-9.15
2018-03-22T01:56:52.156Z,-9.18
2018-03-22T01:57:52.019Z,-9.19
2018-03-22T01:58:51.878Z,-9.26
2018-03-22T01:59:51.742Z,-9.23
2018-03-22T02:00:51.598Z,-9.26
2018-03-22T02:01:51.470Z,-9.27
2018-03-22T02:02:51.320Z,-9.27
2018-03-22T02:03:51.183Z,-9.19
2018-03-22T02:04:51.040Z,-9.23
2018-03-22T02:05:50.901Z,-9.27
2018-03-22T02:06:50.767Z,-9.20
2018-03-22T02:07:50.623Z,-9.26
2018-03-22T02:08:50.481Z,-9.22
2018-03-22T02:09:50.344Z,-9.31
2018-03-22T02:10:50.206Z,-9.31
2018-03-22T02:11:50.066Z,-9.41
2018-03-22T02:12:49.926Z,-9.37
2018-03-22T02:13:49.785Z,-9.41
2018-03-22T02:14:49.644Z,-9.50
2018-03-22T02:15:49.506Z,-9.46
2018-03-22T02:16:49.365Z,-9.52
2018-03-22T02:17:49.229Z,-9.59
2018-03-22T02:18:49.090Z,-9.58
2018-03-22T02:19:48.946Z,-9.56
2018-03-22T02:20:48.805Z,-9.55
2018-03-22T02:21:48.677Z,-9.53
2018-03-22T02:22:48.528Z,-9.58
2018-03-22T02:23:48.390Z,-9.55
2018-03-22T02:24:48.252Z,-9.58
2018-03-22T02:25:48.108Z,-9.60
2018-03-22T02:26:47.972Z,-9.59
2018-03-22T02:27:47.827Z,-9.60
2018-03-22T02:28:47.688Z,-9.62
2018-03-22T02:29:47.553Z,-9.58
2018-03-22T02:30:47.411Z,-9.59
2018-03-22T02:31:47.269Z,-9.70
2018-03-22T02:32:47.126Z,-9.62
2018-03-22T02:33:46.988Z,-9.64
2018-03-22T02:34:46.849Z,-9.62
2018-03-22T02:35:46.708Z,-9.64
2018-03-22T02:36:46.574Z,-9.67
2018-03-22T02:37:46.429Z,-9.62
2018-03-22T02:38:46.286Z,-9.62
2018-03-22T02:39:46.148Z,-9.69
2018-03-22T02:40:46.008Z,-9.62
2018-03-22T02:41:45.866Z,-9.67
2018-03-22T02:42:45.795Z,-9.60
2018-03-22T02:43:45.588Z,-9.60
2018-03-22T02:44:45.448Z,-9.59
2018-03-22T02:45:45.306Z,-9.49
2018-03-22T02:46:45.169Z,-9.56
2018-03-22T02:47:45.030Z,-9.56
2018-03-22T02:48:44.886Z,-9.55
2018-03-22T02:49:44.743Z,-9.55
2018-03-22T02:50:44.606Z,-9.53
2018-03-22T02:51:44.466Z,-9.55
2018-03-22T02:52:44.328Z,-9.64
2018-03-22T02:53:44.187Z,-9.70
2018-03-22T02:54:44.054Z,-9.71
2018-03-22T02:55:43.905Z,-9.71
2018-03-22T02:56:43.773Z,-9.77
2018-03-22T02:57:43.626Z,-9.89
2018-03-22T02:58:43.488Z,-9.80
2018-03-22T02:59:43.344Z,-9.76
2018-03-22T03:00:43.207Z,-9.89
2018-03-22T03:01:43.066Z,-9.79
2018-03-22T03:02:42.926Z,-9.94
2018-03-22T03:03:42.787Z,-9.94
2018-03-22T03:04:42.646Z,-9.91
2018-03-22T03:05:42.510Z,-9.79
2018-03-22T03:06:42.366Z,-9.91
2018-03-22T03:07:42.223Z,-9.92
2018-03-22T03:08:42.083Z,-9.91
2018-03-22T03:09:41.942Z,-9.95
2018-03-22T03:10:41.808Z,-9.92
2018-03-22T03:11:41.670Z,-9.94
2018-03-22T03:12:41.521Z,-9.98
2018-03-22T03:13:41.380Z,-9.98
2018-03-22T03:14:41.241Z,-10.02
2018-03-22T03:15:41.101Z,-9.88
2018-03-22T03:16:40.960Z,-9.98
2018-03-22T03:17:40.822Z,-10.02
2018-03-22T03:18:40.680Z,-9.91
2018-03-22T03:19:40.542Z,-9.98
2018-03-22T03:20:40.400Z,-10.00
2018-03-22T03:21:40.264Z,-9.97
2018-03-22T03:22:40.114Z,-9.85
2018-03-22T03:23:39.976Z,-9.91
2018-03-22T03:24:39.834Z,-9.97
2018-03-22T03:25:39.696Z,-9.94
2018-03-22T03:26:39.554Z,-9.98
2018-03-22T03:27:39.415Z,-9.92
2018-03-22T03:28:39.273Z,-9.98
2018-03-22T03:29:39.135Z,-10.02
2018-03-22T03:30:38.993Z,-10.03
2018-03-22T03:31:38.855Z,-9.89
2018-03-22T03:32:38.711Z,-10.00
2018-03-22T03:33:38.572Z,-9.94
2018-03-22T03:34:38.427Z,-10.02
2018-03-22T03:35:38.290Z,-9.91
2018-03-22T03:36:38.154Z,-10.02
2018-03-22T03:37:38.009Z,-9.89
2018-03-22T03:38:37.867Z,-9.94
2018-03-22T03:39:37.729Z,-9.97
2018-03-22T03:40:37.587Z,-9.91
2018-03-22T03:41:37.445Z,-9.88
2018-03-22T03:42:37.307Z,-9.94
2018-03-22T03:43:37.168Z,-9.98
2018-03-22T03:44:37.022Z,-9.95
2018-03-22T03:45:36.885Z,-9.98
2018-03-22T03:46:36.747Z,-9.97
2018-03-22T03:47:36.600Z,-9.97
2018-03-22T03:48:36.463Z,-9.95
2018-03-22T03:49:36.320Z,-9.89
2018-03-22T03:50:36.181Z,-9.97
2018-03-22T03:51:36.041Z,-9.98
2018-03-22T03:52:35.901Z,-9.87
2018-03-22T03:53:35.763Z,-9.88
2018-03-22T03:54:35.618Z,-9.91
2018-03-22T03:55:35.479Z,-10.05
2018-03-22T03:56:35.338Z,-10.00
2018-03-22T03:57:35.199Z,-10.02
2018-03-22T03:58:35.058Z,-10.06
2018-03-22T03:59:34.920Z,-10.00
2018-03-22T04:00:34.778Z,-10.00
2018-03-22T04:01:34.636Z,-10.00
2018-03-22T04:02:34.496Z,-10.09
2018-03-22T04:03:34.356Z,-10.05
2018-03-22T04:04:34.215Z,-10.02
2018-03-22T04:05:34.075Z,-10.05
2018-03-22T04:06:33.935Z,-10.05
2018-03-22T04:07:33.794Z,-10.08
2018-03-22T04:08:33.656Z,-10.05
2018-03-22T04:09:33.517Z,-10.02
2018-03-22T04:10:33.374Z,-9.98
2018-03-22T04:11:33.234Z,-10.02
2018-03-22T04:12:33.091Z,-9.98
2018-03-22T04:13:32.950Z,-10.06
2018-03-22T04:14:32.814Z,-10.05
2018-03-22T04:15:32.670Z,-10.02
2018-03-22T04:16:32.535Z,-10.02
2018-03-22T04:17:32.394Z,-10.00
2018-03-22T04:18:32.249Z,-10.00
2018-03-22T04:19:32.110Z,-10.02
2018-03-22T04:20:31.969Z,-9.98
2018-03-22T04:21:31.827Z,-10.00
2018-03-22T04:22:31.687Z,-9.95
2018-03-22T04:23:31.549Z,-9.97
2018-03-22T04:24:31.408Z,-10.00
2018-03-22T04:25:31.264Z,-9.98
2018-03-22T04:26:31.126Z,-10.08
2018-03-22T04:27:30.985Z,-10.00
2018-03-22T04:28:30.841Z,-10.08
2018-03-22T04:29:30.702Z,-10.09
2018-03-22T04:30:30.564Z,-10.03
2018-03-22T04:31:30.420Z,-10.03
2018-03-22T04:32:30.280Z,-10.03
2018-03-22T04:33:30.140Z,-10.05
2018-03-22T04:34:29.999Z,-10.05
2018-03-22T04:35:29.861Z,-10.02
2018-03-22T04:36:29.718Z,-10.03
2018-03-22T04:37:29.576Z,-10.00
2018-03-22T04:38:29.436Z,-10.05
2018-03-22T04:39:29.303Z,-10.03
2018-03-22T04:40:29.169Z,-10.05
2018-03-22T04:41:29.016Z,-10.09
2018-03-22T04:42:28.875Z,-10.03
2018-03-22T04:43:28.734Z,-10.09
2018-03-22T04:44:28.594Z,-10.10
2018-03-22T04:45:28.457Z,-10.18
2018-03-22T04:46:28.313Z,-10.18
2018-03-22T04:47:28.175Z,-10.15
2018-03-22T04:48:28.033Z,-10.15
2018-03-22T04:49:27.908Z,-10.18
2018-03-22T04:50:27.751Z,-10.15
2018-03-22T04:51:27.610Z,-10.26
2018-03-22T04:52:27.472Z,-10.23
2018-03-22T04:53:27.332Z,-10.12
2018-03-22T04:54:27.190Z,-10.10
2018-03-22T04:55:27.054Z,-10.15
2018-03-22T04:56:26.910Z,-10.23
2018-03-22T04:57:26.770Z,-10.23
2018-03-22T04:58:26.630Z,-10.18
2018-03-22T04:59:26.493Z,-10.21
2018-03-22T05:00:26.344Z,-10.20
2018-03-22T05:01:26.206Z,-10.24
2018-03-22T05:02:26.064Z,-10.21
2018-03-22T05:03:25.924Z,-10.27
2018-03-22T05:04:25.784Z,-10.26
2018-03-22T05:05:25.652Z,-10.16
2018-03-22T05:06:25.503Z,-10.15
2018-03-22T05:07:25.361Z,-10.23
2018-03-22T05:08:25.229Z,-10.23
2018-03-22T05:09:25.078Z,-10.29
2018-03-22T05:10:24.941Z,-10.27
2018-03-22T05:11:24.799Z,-10.12
2018-03-22T05:12:24.658Z,-10.16
2018-03-22T05:13:24.514Z,-10.15
2018-03-22T05:14:24.376Z,-10.10
2018-03-22T05:15:24.234Z,-10.13
2018-03-22T05:16:24.094Z,-10.20
2018-03-22T05:17:23.955Z,-10.12
2018-03-22T05:18:23.815Z,-10.10
2018-03-22T05:19:23.670Z,-10.03
2018-03-22T05:20:23.534Z,-10.23
2018-03-22T05:21:23.393Z,-10.10
2018-03-22T05:22:23.253Z,-10.10
2018-03-22T05:23:23.115Z,-10.15
2018-03-22T05:24:22.974Z,-10.15
2018-03-22T05:25:22.829Z,-10.18
2018-03-22T05:26:22.692Z,-10.24
2018-03-22T05:27:22.550Z,-10.13
2018-03-22T05:28:22.410Z,-10.13
2018-03-22T05:29:22.270Z,-10.16
2018-03-22T05:30:22.222Z,-10.10
2018-03-22T05:31:22.506Z,-10.10
2018-03-22T05:32:21.846Z,-10.10
2018-03-22T05:33:21.707Z,-10.06
2018-03-22T05:34:21.590Z,-10.05
2018-03-22T05:35:22.037Z,-10.02
2018-03-22T05:36:21.287Z,-10.06
2018-03-22T05:37:21.147Z,-10.09
2018-03-22T05:38:21.005Z,-10.02
2018-03-22T05:39:20.868Z,-10.03
2018-03-22T05:40:20.728Z,-10.02
2018-03-22T05:41:20.587Z,-9.97
2018-03-22T05:42:20.448Z,-9.97
2018-03-22T05:43:20.302Z,-10.03
2018-03-22T05:44:20.163Z,-10.08
2018-03-22T05:45:20.022Z,-10.03
2018-03-22T05:46:19.883Z,-10.05
2018-03-22T05:47:19.745Z,-10.13
2018-03-22T05:48:19.606Z,-10.09
2018-03-22T05:49:19.466Z,-9.98
2018-03-22T05:50:19.331Z,-9.98
2018-03-22T05:51:19.183Z,-9.98
2018-03-22T05:52:19.042Z,-9.94
2018-03-22T05:53:18.902Z,-10.00
2018-03-22T05:54:18.764Z,-9.92
2018-03-22T05:55:18.623Z,-9.94
2018-03-22T05:56:18.481Z,-10.00
2018-03-22T05:57:18.340Z,-9.76
2018-03-22T05:58:18.214Z,-9.91
2018-03-22T05:59:18.062Z,-9.84
2018-03-22T06:00:17.927Z,-9.85
2018-03-22T06:01:17.790Z,-9.74
2018-03-22T06:02:17.693Z,-9.76
2018-03-22T06:03:17.501Z,-9.74
2018-03-22T06:04:17.363Z,-9.76
2018-03-22T06:05:17.233Z,-9.66
2018-03-22T06:06:17.081Z,-9.70
2018-03-22T06:07:17.075Z,-9.66
2018-03-22T06:08:16.799Z,-9.67
2018-03-22T06:09:16.662Z,-9.67
2018-03-22T06:10:16.522Z,-9.67
2018-03-22T06:11:16.397Z,-9.62
2018-03-22T06:12:16.303Z,-9.70
2018-03-22T06:13:16.101Z,-9.77
2018-03-22T06:14:15.963Z,-9.79
2018-03-22T06:15:16.200Z,-9.95
2018-03-22T06:16:15.683Z,-9.84
2018-03-22T06:17:15.543Z,-9.79
2018-03-22T06:18:15.408Z,-9.82
2018-03-22T06:19:15.280Z,-9.82
2018-03-22T06:20:15.120Z,-9.88
2018-03-22T06:21:15.122Z,-9.77
2018-03-22T06:22:14.842Z,-9.71
2018-03-22T06:23:14.703Z,-9.74
2018-03-22T06:24:14.560Z,-9.80
2018-03-22T06:25:14.424Z,-9.76
2018-03-22T06:26:14.284Z,-9.70
2018-03-22T06:27:14.144Z,-9.71
2018-03-22T06:28:14.132Z,-9.59
2018-03-22T06:29:13.866Z,-9.58
2018-03-22T06:30:13.730Z,-9.58
2018-03-22T06:31:13.588Z,-9.46
2018-03-22T06:32:13.444Z,-9.40
2018-03-22T06:33:13.306Z,-9.40
2018-03-22T06:34:13.167Z,-9.38
2018-03-22T06:35:13.033Z,-9.34
2018-03-22T06:36:12.889Z,-9.15
2018-03-22T06:37:12.745Z,-8.99
2018-03-22T06:38:12.607Z,-8.89
2018-03-22T06:39:12.468Z,-8.65
2018-03-22T06:40:12.326Z,-8.58
2018-03-22T06:41:12.190Z,-8.26
2018-03-22T06:42:12.049Z,-7.99
2018-03-22T06:43:11.911Z,-7.90
2018-03-22T06:44:11.790Z,-7.76
2018-03-22T06:45:11.631Z,-7.54
2018-03-22T06:46:11.491Z,-7.30
2018-03-22T06:47:11.357Z,-7.20
2018-03-22T06:48:11.217Z,-7.23
2018-03-22T06:49:11.079Z,-7.23
2018-03-22T06:50:10.938Z,-7.21
2018-03-22T06:51:10.798Z,-7.19
2018-03-22T06:52:10.659Z,-7.15
2018-03-22T06:53:10.535Z,-7.03
2018-03-22T06:54:10.384Z,-7.03
2018-03-22T06:55:10.244Z,-7.16
2018-03-22T06:56:10.107Z,-7.44
2018-03-22T06:57:09.970Z,-7.95
2018-03-22T06:58:09.832Z,-8.32
2018-03-22T06:59:09.693Z,-8.24
2018-03-22T07:00:09.553Z,-8.16
2018-03-22T07:01:09.416Z,-8.03
2018-03-22T07:02:09.278Z,-7.70
2018-03-22T07:03:09.143Z,-7.27
2018-03-22T07:04:09.004Z,-6.99
2018-03-22T07:05:08.864Z,-6.76
2018-03-22T07:06:08.728Z,-6.64
2018-03-22T07:07:08.595Z,-6.51
2018-03-22T07:08:08.455Z,-6.42
2018-03-22T07:09:08.315Z,-6.27
2018-03-22T07:10:08.179Z,-6.12
2018-03-22T07:11:08.043Z,-6.27
2018-03-22T07:12:07.904Z,-6.36
2018-03-22T07:13:07.771Z,-6.11
2018-03-22T07:14:07.631Z,-5.88
2018-03-22T07:15:07.496Z,-6.01
2018-03-22T07:16:07.361Z,-6.13
2018-03-22T07:17:07.222Z,-6.36
2018-03-22T07:18:07.087Z,-6.45
2018-03-22T07:19:06.951Z,-6.40
2018-03-22T07:20:06.819Z,-6.33
2018-03-22T07:21:06.679Z,-6.13
2018-03-22T07:22:06.545Z,-5.94
2018-03-22T07:23:06.406Z,-5.74
2018-03-22T07:24:06.269Z,-5.76
2018-03-22T07:25:06.132Z,-5.65
2018-03-22T07:26:05.997Z,-5.55
2018-03-22T07:27:05.865Z,-5.40
2018-03-22T07:28:05.724Z,-5.17
2018-03-22T07:29:05.588Z,-4.94
2018-03-22T07:30:05.453Z,-4.66
2018-03-22T07:31:05.317Z,-4.54
2018-03-22T07:32:05.181Z,-4.50
2018-03-22T07:33:05.047Z,-4.62
2018-03-22T07:34:04.910Z,-4.71
2018-03-22T07:35:04.779Z,-4.77
2018-03-22T07:36:04.645Z,-4.86
2018-03-22T07:37:04.506Z,-4.89
2018-03-22T07:38:04.388Z,-4.69
2018-03-22T07:39:04.240Z,-4.61
2018-03-22T07:40:04.099Z,-4.47
2018-03-22T07:41:03.970Z,-4.23
2018-03-22T07:42:03.829Z,-4.20
2018-03-22T07:43:03.697Z,-4.19
2018-03-22T07:44:03.561Z,-4.09
2018-03-22T07:45:03.425Z,-4.09
2018-03-22T07:46:03.290Z,-4.08
2018-03-22T07:47:03.158Z,-4.25
2018-03-22T07:48:03.023Z,-4.23
2018-03-22T07:49:02.889Z,-4.09
2018-03-22T07:50:02.757Z,-3.80
2018-03-22T07:51:02.619Z,-3.93
2018-03-22T07:52:02.486Z,-4.07
2018-03-22T07:53:02.352Z,-4.07
2018-03-22T07:54:02.217Z,-3.98
2018-03-22T07:55:02.088Z,-3.62
2018-03-22T07:56:01.951Z,-3.76
2018-03-22T07:57:01.814Z,-3.60
2018-03-22T07:58:01.682Z,-3.71
2018-03-22T07:59:01.608Z,-3.96
2018-03-22T08:00:01.414Z,-3.81
2018-03-22T08:01:01.281Z,-3.84
2018-03-22T08:02:01.147Z,-3.67
2018-03-22T08:03:01.016Z,-3.76
2018-03-22T08:04:00.881Z,-3.72
2018-03-22T08:05:00.745Z,-3.60
2018-03-22T08:06:00.619Z,-3.70
2018-03-22T08:07:00.480Z,-3.80
2018-03-22T08:08:00.344Z,-3.70
2018-03-22T08:09:00.212Z,-3.98
2018-03-22T08:10:00.080Z,-3.89
2018-03-22T08:10:59.946Z,-3.70
2018-03-22T08:11:59.811Z,-3.75
2018-03-22T08:12:59.685Z,-3.53
2018-03-22T08:13:59.544Z,-3.28
2018-03-22T08:14:59.416Z,-3.13
2018-03-22T08:15:59.278Z,-3.32
2018-03-22T08:16:59.150Z,-3.39
2018-03-22T08:17:59.013Z,-3.29
2018-03-22T08:18:58.888Z,-3.05
2018-03-22T08:19:58.748Z,-2.92
2018-03-22T08:20:58.615Z,-2.76
2018-03-22T08:21:58.480Z,-2.90
2018-03-22T08:22:58.347Z,-2.96
2018-03-22T08:23:58.214Z,-2.66
2018-03-22T08:24:58.083Z,-2.69
2018-03-22T08:25:57.949Z,-2.50
2018-03-22T08:26:57.818Z,-2.29
2018-03-22T08:27:57.687Z,-2.50
2018-03-22T08:28:57.552Z,-2.28
2018-03-22T08:29:57.421Z,-2.26
2018-03-22T08:30:57.287Z,-2.03
2018-03-22T08:31:57.154Z,-2.16
2018-03-22T08:32:57.024Z,-1.88
2018-03-22T08:33:56.891Z,-1.90
2018-03-22T08:34:56.758Z,-2.18
2018-03-22T08:35:56.627Z,-2.58
2018-03-22T08:36:56.501Z,-2.64
2018-03-22T08:37:56.364Z,-2.54
2018-03-22T08:38:56.231Z,-2.38
2018-03-22T08:39:56.099Z,-2.13
2018-03-22T08:40:55.968Z,-1.90
2018-03-22T08:41:55.832Z,-2.03
2018-03-22T08:42:55.703Z,-1.92
2018-03-22T08:43:55.570Z,-1.78
2018-03-22T08:44:55.440Z,-1.67
2018-03-22T08:45:55.308Z,-1.38
2018-03-22T08:46:55.178Z,-1.25
2018-03-22T08:47:55.043Z,-1.39
2018-03-22T08:48:54.915Z,-1.36
2018-03-22T08:49:54.787Z,-1.42
2018-03-22T08:50:54.655Z,-1.33
2018-03-22T08:51:54.529Z,-1.24
2018-03-22T08:52:54.388Z,-0.91
2018-03-22T08:53:54.268Z,-1.12
2018-03-22T08:54:54.126Z,-1.20
2018-03-22T08:55:53.998Z,-1.05
2018-03-22T08:56:53.861Z,-0.92
2018-03-22T08:57:53.735Z,-1.05
2018-03-22T08:58:53.608Z,-0.75
2018-03-22T08:59:53.470Z,-0.66
2018-03-22T09:00:53.338Z,-0.47
2018-03-22T09:01:53.208Z,-0.62
2018-03-22T09:02:53.075Z,-0.72
2018-03-22T09:03:52.946Z,-0.91
2018-03-22T09:04:52.817Z,-0.73
2018-03-22T09:05:52.686Z,-0.77
2018-03-22T09:06:52.555Z,-0.75
2018-03-22T09:07:52.424Z,-0.83
2018-03-22T09:08:52.297Z,-0.86
2018-03-22T09:09:52.165Z,-1.00
2018-03-22T09:10:52.061Z,-0.70
2018-03-22T09:11:51.902Z,-0.75
2018-03-22T09:12:51.770Z,-0.87
2018-03-22T09:13:51.642Z,-0.52
2018-03-22T09:14:51.512Z,-0.41
2018-03-22T09:15:51.379Z,-0.26
2018-03-22T09:16:51.248Z,-0.44
2018-03-22T09:17:51.119Z,-0.37
2018-03-22T09:18:50.990Z,-0.63
2018-03-22T09:19:50.860Z,-0.33
2018-03-22T09:20:50.728Z,-0.24
2018-03-22T09:21:50.598Z,0.02
2018-03-22T09:22:50.468Z,-0.01
2018-03-22T09:23:50.336Z,0.18
2018-03-22T09:24:50.208Z,0.21
2018-03-22T09:25:50.080Z,0.39
2018-03-22T09:26:49.950Z,0.48
2018-03-22T09:27:49.853Z,0.65
2018-03-22T09:28:49.690Z,0.88
2018-03-22T09:29:49.557Z,1.10
2018-03-22T09:30:49.425Z,0.90
2018-03-22T09:31:49.299Z,1.08
2018-03-22T09:32:49.171Z,0.79
2018-03-22T09:33:49.038Z,0.71
2018-03-22T09:34:48.928Z,0.51
2018-03-22T09:35:48.782Z,0.62
2018-03-22T09:36:48.657Z,0.64
2018-03-22T09:37:48.525Z,0.85
2018-03-22T09:38:48.394Z,1.03
2018-03-22T09:39:48.266Z,0.67
2018-03-22T09:40:48.138Z,0.70
2018-03-22T09:41:48.042Z,1.00
2018-03-22T09:42:47.878Z,0.92
2018-03-22T09:43:47.748Z,0.86
2018-03-22T09:44:47.625Z,1.39
2018-03-22T09:45:47.491Z,1.29
2018-03-22T09:46:47.363Z,1.19
2018-03-22T09:47:47.230Z,1.33
2018-03-22T09:48:47.114Z,1.62
2018-03-22T09:49:46.974Z,1.47
2018-03-22T09:50:46.849Z,1.68
2018-03-22T09:51:46.716Z,1.72
2018-03-22T09:52:46.589Z,1.72
2018-03-22T09:53:46.461Z,2.10
2018-03-22T09:54:46.332Z,2.48
2018-03-22T09:55:46.203Z,2.41
2018-03-22T09:56:46.075Z,2.10
2018-03-22T09:57:45.947Z,1.71
2018-03-22T09:58:45.815Z,1.40
2018-03-22T09:59:45.688Z,1.61
2018-03-22T10:00:45.565Z,1.93
2018-03-22T10:01:45.432Z,1.93
2018-03-22T10:02:45.303Z,1.64
2018-03-22T10:03:45.175Z,1.58
2018-03-22T10:04:45.050Z,1.28
2018-03-22T10:05:44.915Z,1.03
2018-03-22T10:06:44.790Z,1.08
2018-03-22T10:07:44.659Z,1.03
2018-03-22T10:08:44.531Z,1.15
2018-03-22T10:09:44.406Z,1.40
2018-03-22T10:10:44.271Z,1.60
2018-03-22T10:11:44.143Z,1.52
2018-03-22T10:12:44.015Z,0.97
2018-03-22T10:13:43.897Z,1.42
2018-03-22T10:14:43.754Z,1.87
2018-03-22T10:15:43.629Z,2.23
2018-03-22T10:16:43.496Z,2.45
2018-03-22T10:17:43.369Z,2.12
2018-03-22T10:18:43.243Z,1.26
2018-03-22T10:19:43.114Z,0.97
2018-03-22T10:20:42.985Z,1.06
2018-03-22T10:21:42.869Z,1.04
2018-03-22T10:22:42.729Z,1.58
2018-03-22T10:23:42.602Z,0.80
2018-03-22T10:24:42.471Z,1.07
2018-03-22T10:25:42.345Z,1.61
2018-03-22T10:26:42.225Z,1.98
2018-03-22T10:27:42.168Z,2.16
2018-03-22T10:28:41.961Z,2.51
2018-03-22T10:29:41.831Z,3.10
2018-03-22T10:30:41.701Z,3.24
2018-03-22T10:31:41.574Z,3.42
2018-03-22T10:32:41.446Z,3.70
2018-03-22T10:33:41.318Z,3.65
2018-03-22T10:34:41.191Z,3.25
2018-03-22T10:35:41.060Z,3.12
2018-03-22T10:36:40.934Z,2.89
2018-03-22T10:37:40.807Z,2.67
2018-03-22T10:38:40.683Z,3.13
2018-03-22T10:39:40.553Z,3.53
2018-03-22T10:40:40.426Z,3.62
2018-03-22T10:41:40.298Z,3.67
2018-03-22T10:42:40.173Z,3.44
2018-03-22T10:43:40.042Z,3.27
2018-03-22T10:44:39.913Z,3.52
2018-03-22T10:45:39.789Z,3.30
2018-03-22T10:46:39.662Z,3.25
2018-03-22T10:47:39.537Z,3.71
2018-03-22T10:48:39.403Z,3.50
2018-03-22T10:49:39.287Z,3.30
2018-03-22T10:50:39.150Z,3.24
2018-03-22T10:51:39.025Z,2.84
2018-03-22T10:52:38.895Z,2.76
2018-03-22T10:53:38.768Z,2.46
2018-03-22T10:54:38.644Z,2.37
2018-03-22T10:55:38.513Z,2.88
2018-03-22T10:56:38.385Z,2.77
2018-03-22T10:57:38.262Z,3.21
2018-03-22T10:58:38.132Z,3.40
2018-03-22T10:59:38.003Z,3.57
2018-03-22T11:00:37.877Z,3.44
2018-03-22T11:01:37.744Z,3.40
2018-03-22T11:02:37.621Z,3.27
2018-03-22T11:03:37.490Z,3.15
2018-03-22T11:04:37.364Z,3.00
2018-03-22T11:05:37.244Z,2.95
2018-03-22T11:06:37.109Z,2.98
2018-03-22T11:07:36.982Z,3.54
2018-03-22T11:08:36.854Z,3.75
2018-03-22T11:09:36.729Z,3.90
2018-03-22T11:10:36.600Z,3.88
2018-03-22T11:11:36.470Z,3.68
2018-03-22T11:12:36.343Z,3.76
2018-03-22T11:13:36.217Z,3.80
2018-03-22T11:14:36.091Z,3.76
2018-03-22T11:15:35.959Z,3.88
2018-03-22T11:16:35.839Z,4.14
2018-03-22T11:17:35.708Z,4.29
2018-03-22T11:18:35.581Z,4.10
2018-03-22T11:19:35.453Z,4.22
2018-03-22T11:20:35.326Z,4.37
2018-03-22T11:21:35.202Z,4.88
2018-03-22T11:22:35.074Z,5.10
2018-03-22T11:23:34.951Z,5.14
2018-03-22T11:24:34.822Z,4.96
2018-03-22T11:25:34.694Z,5.09
2018-03-22T11:26:34.567Z,4.86
2018-03-22T11:27:34.441Z,4.88
2018-03-22T11:28:34.316Z,4.29
2018-03-22T11:29:34.190Z,4.08
2018-03-22T11:30:34.064Z,4.28
2018-03-22T11:31:33.937Z,4.25
2018-03-22T11:32:33.814Z,4.91
2018-03-22T11:33:33.692Z,5.34
2018-03-22T11:34:33.561Z,5.82
2018-03-22T11:35:33.435Z,5.92
2018-03-22T11:36:33.310Z,5.77
2018-03-22T11:37:33.185Z,5.71
2018-03-22T11:38:33.060Z,5.41
2018-03-22T11:39:32.933Z,5.40
2018-03-22T11:40:32.809Z,5.45
2018-03-22T11:41:32.685Z,5.71
2018-03-22T11:42:32.559Z,6.00
2018-03-22T11:43:32.433Z,5.93
2018-03-22T11:44:32.310Z,5.75
2018-03-22T11:45:32.187Z,5.98
2018-03-22T11:46:32.059Z,6.06
2018-03-22T11:47:31.940Z,5.41
2018-03-22T11:48:31.812Z,5.60
2018-03-22T11:49:31.685Z,5.27
2018-03-22T11:50:31.561Z,5.31
2018-03-22T11:51:31.434Z,5.10
2018-03-22T11:52:31.310Z,5.73
2018-03-22T11:53:31.183Z,6.35
2018-03-22T11:54:31.064Z,6.54
2018-03-22T11:55:30.935Z,6.35
2018-03-22T11:56:30.855Z,5.78
2018-03-22T11:57:30.691Z,5.53
2018-03-22T11:58:30.564Z,5.28
2018-03-22T11:59:30.437Z,4.92
2018-03-22T12:00:30.312Z,4.91
2018-03-22T12:01:30.192Z,4.92
2018-03-22T12:02:30.064Z,5.49
2018-03-22T12:03:29.936Z,5.89
2018-03-22T12:04:29.812Z,5.37
2018-03-22T12:05:29.690Z,5.49
2018-03-22T12:06:29.570Z,4.57
2018-03-22T12:07:29.440Z,4.37
2018-03-22T12:08:29.321Z,4.83
2018-03-22T12:09:29.189Z,5.09
2018-03-22T12:10:29.064Z,5.50
2018-03-22T12:11:28.941Z,5.48
2018-03-22T12:12:28.832Z,5.52
2018-03-22T12:13:28.697Z,5.66
2018-03-22T12:14:28.569Z,5.68
2018-03-22T12:15:28.445Z,5.70
2018-03-22T12:16:28.319Z,5.17
2018-03-22T12:17:28.193Z,5.35
2018-03-22T12:18:28.071Z,5.38
2018-03-22T12:19:28.003Z,5.78
2018-03-22T12:20:27.822Z,6.11
2018-03-22T12:21:27.696Z,6.13
2018-03-22T12:22:27.574Z,5.85
2018-03-22T12:23:27.459Z,5.95
2018-03-22T12:24:27.341Z,5.38
2018-03-22T12:25:27.199Z,5.59
2018-03-22T12:26:27.075Z,5.67
2018-03-22T12:27:26.951Z,5.52
2018-03-22T12:28:26.829Z,5.25
2018-03-22T12:29:26.700Z,4.84
2018-03-22T12:30:26.576Z,4.62
2018-03-22T12:31:26.448Z,4.65
2018-03-22T12:32:26.350Z,5.25
2018-03-22T12:33:26.204Z,5.70
2018-03-22T12:34:26.077Z,5.82
2018-03-22T12:35:25.949Z,5.96
2018-03-22T12:36:25.833Z,6.16
2018-03-22T12:37:25.699Z,6.26
2018-03-22T12:38:25.573Z,6.46
2018-03-22T12:39:25.447Z,6.56
2018-03-22T12:40:25.322Z,5.64
2018-03-22T12:41:25.203Z,4.80
2018-03-22T12:42:25.074Z,4.58
2018-03-22T12:43:25.026Z,4.37
2018-03-22T12:44:24.821Z,4.75
2018-03-22T12:45:24.698Z,5.12
2018-03-22T12:46:24.576Z,5.13
2018-03-22T12:47:24.447Z,5.55
2018-03-22T12:48:24.321Z,5.81
2018-03-22T12:49:24.195Z,5.63
2018-03-22T12:50:24.069Z,5.71
2018-03-22T12:51:23.945Z,5.96
2018-03-22T12:52:23.820Z,5.89
2018-03-22T12:53:23.694Z,5.40